Time;durP1;ratioP1;P1;durP2;ratioP2;P2;SDS_P1;SDS_P2;PMS_P1;PMS_P2;Temp;Humidity;BMP_temperature;BMP_pressure;BME280_temperature;BME280_humidity;BME280_pressure;Samples;Min_cycle;Max_cycle;Signal;HPM_P1;HPM_P2
2021/03/27 00:01:01;;;;;;;11.73;6.55;;;9.40;69.40;;;;;;5012235;28;20398;-65
2021/03/27 00:03:37;;;;;;;12.48;6.53;;;9.30;69.50;;;;;;5012879;28;20541;-66
2021/03/27 00:06:14;;;;;;;15.15;6.32;;;9.20;69.80;;;;;;5019889;28;20037;-66
2021/03/27 00:08:59;;;;;;;11.50;7.00;;;9.10;70.50;;;;;;5019113;28;20037;-67
2021/03/27 00:11:34;;;;;;;15.30;7.43;;;9.10;70.60;;;;;;5020513;28;20474;-66
2021/03/27 00:14:06;;;;;;;13.43;7.72;;;9.20;70.50;;;;;;5018929;28;20021;-67
2021/03/27 00:16:38;;;;;;;12.38;7.13;;;9.30;70.30;;;;;;5024254;28;20025;-67
2021/03/27 00:19:13;;;;;;;15.07;7.25;;;9.50;69.80;;;;;;5017330;28;20450;-67
2021/03/27 00:21:54;;;;;;;12.63;7.65;;;9.50;69.50;;;;;;5038506;23;20034;-72
2021/03/27 00:25:09;;;;;;;10.60;6.15;;;9.70;68.90;;;;;;5028968;28;20018;-71
2021/03/27 00:27:42;;;;;;;12.45;6.22;;;9.80;68.30;;;;;;5025773;28;20575;-70
2021/03/27 00:30:20;;;;;;;13.38;7.07;;;9.80;68.20;;;;;;5007737;28;20034;-70
2021/03/27 00:32:50;;;;;;;12.55;6.40;;;9.80;67.90;;;;;;5012255;28;20080;-70
2021/03/27 00:35:24;;;;;;;10.73;6.10;;;9.80;67.80;;;;;;5008271;28;20037;-70
2021/03/27 00:37:50;;;;;;;12.55;6.30;;;9.80;67.90;;;;;;5005382;28;20041;-73
2021/03/27 00:40:21;;;;;;;10.10;5.97;;;9.90;67.80;;;;;;5002635;28;20114;-70
2021/03/27 00:42:56;;;;;;;11.95;6.85;;;10.00;67.40;;;;;;5007757;28;20037;-73
2021/03/27 00:45:26;;;;;;;14.88;6.25;;;10.10;67.20;;;;;;5002594;28;20034;-70
2021/03/27 00:47:56;;;;;;;12.63;6.05;;;10.00;67.30;;;;;;5011646;28;20414;-70
2021/03/27 00:50:33;;;;;;;10.50;5.93;;;10.00;67.20;;;;;;5004178;28;20043;-70
2021/03/27 00:53:12;;;;;;;12.80;6.10;;;10.10;67.00;;;;;;5010075;28;20025;-70
2021/03/27 00:55:47;;;;;;;11.18;6.47;;;10.10;67.10;;;;;;5007156;28;20029;-71
2021/03/27 00:58:50;;;;;;;10.00;6.70;;;10.10;67.10;;;;;;5008133;28;20164;-70
2021/03/27 01:01:18;;;;;;;12.80;6.40;;;10.10;66.90;;;;;;4983809;28;20077;-70
2021/03/27 01:03:54;;;;;;;11.10;6.55;;;10.10;67.20;;;;;;5003005;28;20595;-70
2021/03/27 01:06:32;;;;;;;12.82;6.47;;;10.10;67.10;;;;;;5006362;28;20656;-69
2021/03/27 01:09:01;;;;;;;10.25;5.72;;;10.10;66.70;;;;;;5006541;28;20045;-70
2021/03/27 01:11:54;;;;;;;10.35;6.25;;;10.20;66.30;;;;;;5006168;28;20116;-70
2021/03/27 01:14:27;;;;;;;11.38;5.53;;;10.10;66.60;;;;;;5006487;28;20038;-70
2021/03/27 01:16:59;;;;;;;8.98;5.47;;;10.10;66.70;;;;;;5006366;28;20030;-70
2021/03/27 01:19:44;;;;;;;8.90;5.60;;;10.10;66.40;;;;;;5004142;28;20024;-70
2021/03/27 01:22:12;;;;;;;12.07;5.50;;;10.10;66.50;;;;;;5007569;28;20066;-70
2021/03/27 01:24:38;;;;;;;7.43;4.80;;;10.10;66.40;;;;;;5004687;28;20026;-70
2021/03/27 01:27:25;;;;;;;8.88;5.22;;;10.10;66.50;;;;;;5006422;28;20399;-70
2021/03/27 01:30:03;;;;;;;10.57;5.22;;;10.00;66.50;;;;;;5003165;28;20545;-70
2021/03/27 01:32:44;;;;;;;12.27;5.78;;;10.00;66.40;;;;;;5010095;28;20025;-70
2021/03/27 01:35:27;;;;;;;10.32;5.40;;;9.90;66.60;;;;;;5003989;28;20022;-71
2021/03/27 01:38:13;;;;;;;9.57;4.95;;;9.90;66.50;;;;;;5003962;28;20112;-70
2021/03/27 01:40:55;;;;;;;8.80;5.00;;;9.90;66.50;;;;;;5002547;28;20093;-70
2021/03/27 01:43:59;;;;;;;7.75;4.85;;;9.90;66.50;;;;;;5007501;28;20442;-71
2021/03/27 01:46:37;;;;;;;11.73;4.93;;;9.80;67.00;;;;;;5004972;28;20432;-70
2021/03/27 01:49:32;;;;;;;9.88;5.05;;;9.60;67.30;;;;;;4998900;28;20026;-70
2021/03/27 01:52:00;;;;;;;9.25;5.03;;;9.60;67.50;;;;;;5008626;28;20077;-70
2021/03/27 01:54:50;;;;;;;14.43;5.95;;;9.50;67.60;;;;;;5005993;28;20026;-71
2021/03/27 01:57:39;;;;;;;12.32;5.95;;;9.60;67.70;;;;;;5006905;28;20025;-70
2021/03/27 02:00:30;;;;;;;12.02;5.57;;;9.60;67.50;;;;;;5004295;28;20044;-71
2021/03/27 02:03:26;;;;;;;9.13;5.28;;;9.70;67.30;;;;;;5016364;28;20046;-71
2021/03/27 02:05:59;;;;;;;12.20;6.00;;;9.80;67.10;;;;;;5006540;28;20023;-70
2021/03/27 02:08:33;;;;;;;9.63;5.53;;;9.80;66.90;;;;;;5005151;28;20034;-71
2021/03/27 02:11:13;;;;;;;13.23;5.72;;;9.80;66.90;;;;;;5005892;28;20501;-70
2021/03/27 02:13:52;;;;;;;8.55;4.45;;;9.80;66.70;;;;;;5006986;28;20030;-71
2021/03/27 02:16:39;;;;;;;12.40;5.57;;;9.90;66.10;;;;;;5008844;28;20372;-71
2021/03/27 02:19:38;;;;;;;11.32;5.07;;;9.80;66.70;;;;;;5008359;28;20052;-72
2021/03/27 02:22:32;;;;;;;8.88;5.07;;;9.90;66.10;;;;;;5008465;28;20115;-71
2021/03/27 02:25:19;;;;;;;8.40;5.00;;;9.90;66.50;;;;;;5015218;28;20069;-71
2021/03/27 02:28:20;;;;;;;9.55;4.70;;;9.90;66.40;;;;;;5005690;28;20057;-72
2021/03/27 02:30:50;;;;;;;7.63;4.35;;;9.90;66.50;;;;;;5006332;28;20030;-71
2021/03/27 02:33:40;;;;;;;9.10;5.13;;;10.00;66.00;;;;;;5006761;28;20448;-72
2021/03/27 02:36:41;;;;;;;9.43;4.47;;;10.10;65.80;;;;;;5004043;28;20088;-71
2021/03/27 02:39:24;;;;;;;7.80;4.13;;;10.00;66.30;;;;;;5008145;28;20021;-71
2021/03/27 02:42:10;;;;;;;9.82;4.97;;;10.00;66.60;;;;;;5008355;28;20508;-72
2021/03/27 02:44:46;;;;;;;9.18;4.35;;;9.90;66.90;;;;;;5006761;28;20083;-72
2021/03/27 02:47:58;;;;;;;9.15;4.93;;;10.00;66.00;;;;;;5004093;28;20041;-73
2021/03/27 02:50:42;;;;;;;;;;;10.10;65.50;;;;;;4984371;28;20064;-71
2021/03/27 02:53:15;;;;;;;9.10;4.35;;;10.10;65.40;;;;;;5005955;28;19924;-71
2021/03/27 02:56:09;;;;;;;9.50;4.28;;;10.10;65.60;;;;;;5008061;28;20076;-71
2021/03/27 02:58:52;;;;;;;8.52;4.50;;;10.10;65.10;;;;;;5006510;28;20041;-70
2021/03/27 03:01:21;;;;;;;7.90;4.32;;;10.20;65.10;;;;;;5007433;28;20029;-71
2021/03/27 03:04:22;;;;;;;8.32;4.50;;;10.30;64.80;;;;;;5005816;28;20053;-75
2021/03/27 03:07:08;;;;;;;7.20;4.07;;;10.20;64.90;;;;;;4952768;28;20047;-72
2021/03/27 03:09:44;;;;;;;7.50;4.38;;;10.30;64.90;;;;;;5005359;28;20022;-72
2021/03/27 03:12:32;;;;;;;9.63;4.47;;;10.30;64.90;;;;;;5000331;28;20033;-71
2021/03/27 03:15:03;;;;;;;8.10;4.18;;;10.20;65.40;;;;;;5006335;28;20029;-72
2021/03/27 03:17:54;;;;;;;7.72;4.28;;;10.20;65.20;;;;;;5011040;28;20025;-72
2021/03/27 03:20:32;;;;;;;8.43;4.50;;;10.30;65.10;;;;;;5001646;28;20088;-72
2021/03/27 03:23:06;;;;;;;7.70;4.13;;;10.30;65.20;;;;;;5004228;28;20040;-69
2021/03/27 03:25:38;;;;;;;7.95;4.40;;;10.30;65.60;;;;;;5006937;28;20636;-69
2021/03/27 03:28:28;;;;;;;7.00;4.07;;;10.20;65.80;;;;;;5006301;28;20137;-70
2021/03/27 03:31:12;;;;;;;11.15;5.07;;;10.20;66.30;;;;;;5005558;28;20033;-69
2021/03/27 03:34:10;;;;;;;8.73;4.78;;;10.20;67.60;;;;;;5004353;28;20496;-69
2021/03/27 03:37:02;;;;;;;8.02;5.43;;;9.80;71.90;;;;;;4995780;28;20121;-70
2021/03/27 03:39:52;;;;;;;10.65;5.53;;;9.60;73.70;;;;;;5005819;28;20383;-69
2021/03/27 03:42:55;;;;;;;13.57;6.45;;;9.30;76.20;;;;;;5007348;28;20105;-69
2021/03/27 03:45:45;;;;;;;12.50;6.88;;;9.00;78.80;;;;;;5007456;28;20051;-69
2021/03/27 03:48:29;;;;;;;8.45;5.00;;;8.80;79.60;;;;;;5005645;28;20029;-69
2021/03/27 03:51:05;;;;;;;8.00;4.45;;;8.40;81.50;;;;;;5000316;28;20088;-69
2021/03/27 03:53:40;;;;;;;7.40;4.57;;;7.80;83.80;;;;;;5004842;28;20108;-68
2021/03/27 03:56:27;;;;;;;7.63;4.60;;;7.40;86.90;;;;;;5000690;28;20164;-68
2021/03/27 03:59:19;;;;;;;10.40;5.18;;;7.20;88.50;;;;;;5004610;28;20407;-69
2021/03/27 04:02:03;;;;;;;;;;;7.10;89.60;;;;;;5007186;28;20026;-69
2021/03/27 04:04:39;;;;;;;6.15;3.20;;;7.10;89.40;;;;;;5003576;28;19909;-69
2021/03/27 04:07:08;;;;;;;3.92;2.40;;;6.90;88.80;;;;;;5001402;28;20026;-69
2021/03/27 04:09:41;;;;;;;4.03;2.67;;;6.60;89.10;;;;;;5006249;28;20429;-69
2021/03/27 04:12:06;;;;;;;5.32;3.03;;;6.50;90.30;;;;;;5004335;28;20018;-68
2021/03/27 04:14:35;;;;;;;3.65;1.77;;;6.40;90.40;;;;;;5004284;28;20022;-68
2021/03/27 04:17:11;;;;;;;1.45;0.80;;;6.20;90.50;;;;;;5000492;28;20527;-69
2021/03/27 04:19:42;;;;;;;1.25;0.90;;;6.00;89.30;;;;;;5004438;28;20030;-68
2021/03/27 04:22:31;;;;;;;0.90;0.70;;;5.80;90.30;;;;;;5007082;28;20145;-69
2021/03/27 04:25:14;;;;;;;1.75;0.75;;;5.60;89.50;;;;;;5003437;28;20185;-69
2021/03/27 04:28:08;;;;;;;0.88;0.75;;;5.50;90.80;;;;;;5006072;28;20033;-68
2021/03/27 04:31:06;;;;;;;1.88;1.20;;;5.40;90.60;;;;;;4981870;28;20050;-69
2021/03/27 04:33:46;;;;;;;1.75;1.40;;;5.40;91.20;;;;;;4968210;28;20048;-69
2021/03/27 04:36:28;;;;;;;2.25;1.40;;;5.40;90.80;;;;;;5005965;28;20109;-69
2021/03/27 04:39:00;;;;;;;1.58;1.38;;;5.40;91.10;;;;;;5006543;28;20032;-69
2021/03/27 04:41:38;;;;;;;3.50;1.77;;;5.30;91.60;;;;;;5006516;28;20028;-69
2021/03/27 04:44:28;;;;;;;5.25;2.00;;;5.30;92.20;;;;;;5006243;28;20113;-69
2021/03/27 04:47:03;;;;;;;2.70;1.42;;;5.30;93.00;;;;;;4999490;28;20045;-69
2021/03/27 04:50:08;;;;;;;2.10;1.40;;;5.30;92.20;;;;;;4998597;28;20065;-69
2021/03/27 04:52:57;;;;;;;2.05;1.40;;;5.20;90.70;;;;;;4989021;28;20041;-69
2021/03/27 04:56:09;;;;;;;3.03;1.58;;;5.20;90.80;;;;;;5008890;28;20080;-69
2021/03/27 04:58:40;;;;;;;3.85;2.08;;;5.20;91.60;;;;;;4946032;28;20031;-69
2021/03/27 05:01:11;;;;;;;4.63;2.60;;;5.20;91.80;;;;;;5001949;28;20034;-69
2021/03/27 05:03:47;;;;;;;4.25;2.38;;;5.20;92.30;;;;;;5007042;28;20487;-69
2021/03/27 05:06:35;;;;;;;5.10;2.38;;;5.20;92.60;;;;;;5003072;28;20045;-70
2021/03/27 05:09:15;;;;;;;4.90;2.65;;;5.20;92.80;;;;;;5000716;28;20128;-69
2021/03/27 05:11:49;;;;;;;4.82;2.63;;;5.20;92.80;;;;;;5013100;28;20036;-69
2021/03/27 05:14:15;;;;;;;3.92;2.20;;;5.10;92.50;;;;;;5006679;28;20041;-69
2021/03/27 05:17:02;;;;;;;3.85;2.47;;;5.10;92.80;;;;;;5007532;28;20030;-69
2021/03/27 05:19:40;;;;;;;4.35;2.33;;;5.10;92.70;;;;;;5009677;28;20083;-69
2021/03/27 05:22:22;;;;;;;5.05;3.08;;;5.10;93.00;;;;;;5002544;28;20053;-69
2021/03/27 05:24:59;;;;;;;6.45;3.30;;;5.10;93.00;;;;;;5009753;28;20156;-69
2021/03/27 05:27:40;;;;;;;7.57;3.33;;;5.10;93.00;;;;;;5001129;28;20538;-69
2021/03/27 05:30:27;;;;;;;6.50;3.50;;;5.10;93.10;;;;;;5013322;28;20061;-69
2021/03/27 05:33:40;;;;;;;7.05;4.00;;;5.10;93.30;;;;;;5005467;28;20288;-69
2021/03/27 05:36:27;;;;;;;8.25;5.28;;;5.10;93.50;;;;;;5008267;28;20036;-69
2021/03/27 05:39:14;;;;;;;9.50;5.90;;;5.10;93.50;;;;;;5007873;28;20376;-69
2021/03/27 05:41:58;;;;;;;12.07;6.57;;;5.10;93.50;;;;;;5015816;28;20025;-69
2021/03/27 05:44:37;;;;;;;12.43;8.00;;;5.10;93.50;;;;;;5012065;28;20025;-70
2021/03/27 05:47:27;;;;;;;13.98;8.20;;;5.10;93.50;;;;;;5006705;28;20030;-69
2021/03/27 05:50:02;;;;;;;11.30;7.53;;;5.10;93.30;;;;;;5005725;28;20037;-69
2021/03/27 05:52:34;;;;;;;13.40;7.63;;;5.20;93.20;;;;;;5009087;28;20112;-70
2021/03/27 05:55:38;;;;;;;13.65;7.57;;;5.20;93.10;;;;;;5005321;28;20022;-69
2021/03/27 05:58:25;;;;;;;12.70;7.45;;;5.20;93.30;;;;;;5007615;28;20041;-68
2021/03/27 06:01:26;;;;;;;10.77;6.78;;;5.10;93.20;;;;;;5011164;28;20088;-69
2021/03/27 06:04:18;;;;;;;13.18;7.18;;;5.20;93.50;;;;;;5006290;28;20060;-68
2021/03/27 06:06:49;;;;;;;12.65;6.88;;;5.20;93.90;;;;;;5008565;28;20031;-69
2021/03/27 06:09:43;;;;;;;11.93;6.95;;;5.10;93.90;;;;;;5006835;28;20113;-69
2021/03/27 06:12:38;;;;;;;8.85;5.50;;;5.20;94.00;;;;;;5008498;28;20036;-69
2021/03/27 06:15:17;;;;;;;12.68;6.50;;;5.10;94.00;;;;;;5008455;28;20038;-70
2021/03/27 06:17:45;;;;;;;13.32;7.22;;;5.10;94.00;;;;;;5004093;28;20041;-69
2021/03/27 06:20:13;;;;;;;10.98;7.32;;;5.20;94.10;;;;;;5006044;28;20037;-69
2021/03/27 06:22:42;;;;;;;11.40;7.20;;;5.20;94.10;;;;;;5013943;28;20026;-69
2021/03/27 06:25:56;;;;;;;13.35;8.05;;;5.20;94.20;;;;;;5008941;28;20026;-69
2021/03/27 06:28:47;;;;;;;11.55;7.78;;;5.20;93.90;;;;;;4999135;28;20053;-66
2021/03/27 06:31:51;;;;;;;12.30;7.95;;;5.20;93.70;;;;;;5020238;28;20557;-68
2021/03/27 06:34:35;;;;;;;11.70;7.47;;;5.30;93.90;;;;;;4994679;28;20038;-69
2021/03/27 06:37:29;;;;;;;13.88;7.80;;;5.30;93.70;;;;;;5003362;28;20521;-69
2021/03/27 06:40:36;;;;;;;10.65;6.93;;;5.30;93.70;;;;;;5006157;28;20398;-69
2021/03/27 06:43:36;;;;;;;11.13;7.15;;;5.40;93.50;;;;;;4994419;28;20083;-69
2021/03/27 06:46:02;;;;;;;12.03;7.67;;;5.50;92.90;;;;;;5000344;28;20045;-69
2021/03/27 06:48:51;;;;;;;12.32;7.18;;;5.50;92.30;;;;;;5001864;28;20285;-68
2021/03/27 06:51:53;;;;;;;11.05;6.70;;;5.50;92.20;;;;;;5005030;28;20519;-69
2021/03/27 06:54:46;;;;;;;13.05;7.78;;;5.50;92.20;;;;;;5006276;28;20101;-70
2021/03/27 06:57:30;;;;;;;12.60;6.93;;;5.50;92.10;;;;;;5001301;28;20604;-69
2021/03/27 07:00:11;;;;;;;9.65;6.43;;;5.40;92.50;;;;;;5003394;28;20057;-69
2021/03/27 07:03:04;;;;;;;10.85;6.57;;;5.40;92.20;;;;;;5001333;28;20153;-70
2021/03/27 07:06:07;;;;;;;11.93;7.28;;;5.40;92.30;;;;;;5007147;28;20116;-69
2021/03/27 07:09:02;;;;;;;11.55;7.72;;;5.50;92.70;;;;;;5000160;28;20042;-71
2021/03/27 07:11:27;;;;;;;12.65;7.60;;;5.60;92.30;;;;;;4994286;28;20026;-69
2021/03/27 07:14:27;;;;;;;10.82;6.68;;;5.60;92.30;;;;;;5003110;28;20038;-69
2021/03/27 07:16:58;;;;;;;13.98;8.68;;;5.60;92.40;;;;;;5006116;28;20025;-69
2021/03/27 07:19:45;;;;;;;14.70;8.90;;;5.60;92.60;;;;;;5003758;28;20439;-69
2021/03/27 07:22:37;;;;;;;14.65;9.35;;;5.60;92.60;;;;;;4998086;28;20038;-69
2021/03/27 07:25:26;;;;;;;12.85;8.40;;;5.70;92.90;;;;;;5007130;28;20055;-69
2021/03/27 07:28:00;;;;;;;17.35;9.35;;;5.80;91.50;;;;;;5005648;28;20042;-70
2021/03/27 07:30:44;;;;;;;13.02;8.77;;;6.00;92.30;;;;;;4995298;28;20339;-70
2021/03/27 07:33:49;;;;;;;15.75;9.32;;;6.00;91.10;;;;;;5001149;28;20022;-69
2021/03/27 07:36:26;;;;;;;17.02;8.75;;;6.10;91.60;;;;;;4967788;28;20034;-70
2021/03/27 07:39:16;;;;;;;20.20;9.30;;;6.00;90.80;;;;;;5002164;28;20058;-70
2021/03/27 07:42:11;;;;;;;12.88;9.10;;;6.00;90.10;;;;;;5012447;28;20116;-70
2021/03/27 07:44:55;;;;;;;15.82;9.38;;;6.20;90.60;;;;;;4998578;28;20240;-69
2021/03/27 07:47:48;;;;;;;15.40;7.32;;;6.50;89.70;;;;;;5000340;28;20041;-70
2021/03/27 07:50:43;;;;;;;14.55;8.55;;;6.60;88.40;;;;;;5003332;28;20033;-69
2021/03/27 07:53:18;;;;;;;15.48;9.05;;;6.60;87.90;;;;;;5005618;28;20037;-69
2021/03/27 07:56:06;;;;;;;15.60;8.70;;;6.70;87.80;;;;;;5006288;28;20022;-69
2021/03/27 07:58:52;;;;;;;11.80;6.90;;;6.60;87.00;;;;;;5000171;28;20061;-70
2021/03/27 08:01:30;;;;;;;8.45;5.93;;;6.40;86.40;;;;;;5003321;28;20033;-69
2021/03/27 08:04:17;;;;;;;13.90;7.53;;;6.40;86.70;;;;;;5005607;28;20091;-69
2021/03/27 08:07:08;;;;;;;9.45;6.05;;;6.30;87.40;;;;;;5020510;28;20026;-69
2021/03/27 08:09:52;;;;;;;15.07;7.20;;;6.30;86.50;;;;;;5003875;28;20022;-70
2021/03/27 08:12:42;;;;;;;13.18;6.80;;;6.40;87.00;;;;;;5006155;28;20274;-69
2021/03/27 08:15:11;;;;;;;12.85;6.32;;;6.40;85.90;;;;;;5002109;28;20134;-69
2021/03/27 08:17:44;;;;;;;14.80;6.53;;;6.60;86.90;;;;;;5004652;28;20112;-69
2021/03/27 08:20:54;;;;;;;12.45;5.85;;;6.70;87.10;;;;;;5006703;28;20033;-70
2021/03/27 08:23:32;;;;;;;11.32;6.38;;;6.60;86.00;;;;;;5003979;28;20052;-69
2021/03/27 08:26:13;;;;;;;11.10;6.40;;;6.50;85.90;;;;;;5004648;28;20029;-69
2021/03/27 08:29:08;;;;;;;;;;;6.50;86.50;;;;;;5007906;28;20026;-69
2021/03/27 08:31:42;;;;;;;11.85;5.82;;;6.50;85.80;;;;;;4971168;28;19917;-69
2021/03/27 08:34:46;;;;;;;12.23;5.80;;;6.40;84.90;;;;;;5009921;28;20837;-70
2021/03/27 08:37:32;;;;;;;10.23;5.35;;;6.40;84.60;;;;;;4994227;28;20033;-70
2021/03/27 08:40:21;;;;;;;12.98;5.88;;;6.40;85.90;;;;;;5024031;28;20022;-70
2021/03/27 08:43:08;;;;;;;18.63;5.97;;;6.30;85.60;;;;;;5003136;28;20551;-69
2021/03/27 08:46:02;;;;;;;11.32;5.78;;;6.10;86.90;;;;;;5004748;28;20022;-70
2021/03/27 08:48:49;;;;;;;10.30;5.57;;;6.00;87.10;;;;;;5005896;28;20113;-69
2021/03/27 08:51:26;;;;;;;13.25;6.78;;;6.00;88.00;;;;;;5008169;28;20029;-69
2021/03/27 08:54:14;;;;;;;12.20;6.10;;;6.10;88.00;;;;;;4998948;28;20034;-69
2021/03/27 08:56:59;;;;;;;16.17;6.13;;;6.10;86.90;;;;;;5004456;28;20038;-69
2021/03/27 08:59:53;;;;;;;9.90;5.65;;;6.10;87.00;;;;;;5004209;28;20037;-69
2021/03/27 09:02:38;;;;;;;14.75;6.63;;;6.10;86.10;;;;;;4973029;28;20464;-69
2021/03/27 09:05:30;;;;;;;13.20;6.30;;;6.10;86.30;;;;;;5004617;28;20430;-68
2021/03/27 09:08:18;;;;;;;11.88;6.68;;;6.00;86.90;;;;;;5010507;28;20061;-68
2021/03/27 09:10:59;;;;;;;15.32;6.47;;;6.00;86.70;;;;;;5006526;28;20423;-69
2021/03/27 09:13:40;;;;;;;16.92;7.60;;;6.20;86.70;;;;;;5004142;28;20033;-69
2021/03/27 09:16:53;;;;;;;12.63;7.35;;;6.30;86.10;;;;;;5000918;28;20026;-69
2021/03/27 09:19:27;;;;;;;11.45;6.68;;;6.40;87.30;;;;;;5002673;28;20485;-70
2021/03/27 09:22:16;;;;;;;8.25;5.30;;;6.40;86.40;;;;;;5005330;28;20109;-68
2021/03/27 09:24:49;;;;;;;13.20;5.80;;;6.40;84.30;;;;;;5001208;28;20034;-67
2021/03/27 09:27:51;;;;;;;11.35;5.68;;;6.50;84.60;;;;;;4999518;28;20038;-68
2021/03/27 09:30:16;;;;;;;;;;;6.60;84.60;;;;;;5006326;28;20033;-68
2021/03/27 09:32:50;;;;;;;13.90;6.28;;;6.80;84.90;;;;;;4997268;28;19910;-67
2021/03/27 09:35:22;;;;;;;9.18;5.03;;;7.00;85.50;;;;;;5000892;28;20641;-69
2021/03/27 09:38:35;;;;;;;14.15;5.15;;;7.00;82.40;;;;;;4997495;28;20387;-68
2021/03/27 09:41:10;;;;;;;10.48;5.57;;;7.20;83.00;;;;;;5003199;28;20121;-69
2021/03/27 09:43:59;;;;;;;10.10;5.40;;;7.20;83.20;;;;;;5014569;28;20035;-68
2021/03/27 09:46:55;;;;;;;13.23;5.80;;;7.20;83.50;;;;;;4999225;28;20424;-69
2021/03/27 09:49:54;;;;;;;11.88;5.40;;;7.10;82.30;;;;;;5007368;28;20045;-69
2021/03/27 09:52:40;;;;;;;9.18;5.35;;;7.00;82.70;;;;;;4998858;28;20080;-68
2021/03/27 09:55:42;;;;;;;18.48;6.25;;;7.00;83.20;;;;;;5003977;28;20342;-69
2021/03/27 09:58:10;;;;;;;10.63;5.20;;;7.20;84.10;;;;;;5005710;28;20045;-69
2021/03/27 10:00:47;;;;;;;9.10;4.95;;;7.50;81.30;;;;;;5000902;28;20026;-68
2021/03/27 10:03:33;;;;;;;10.45;4.38;;;7.60;81.60;;;;;;5011142;28;20030;-68
2021/03/27 10:06:19;;;;;;;6.22;1.80;;;7.10;82.50;;;;;;5012646;28;20444;-68
2021/03/27 10:08:56;;;;;;;5.30;1.90;;;5.00;86.90;;;;;;5002630;28;20176;-67
2021/03/27 10:11:28;;;;;;;3.88;1.70;;;4.80;87.40;;;;;;5006440;28;20521;-68
2021/03/27 10:14:01;;;;;;;4.57;1.42;;;4.70;87.90;;;;;;5009076;28;20029;-67
2021/03/27 10:17:11;;;;;;;4.30;1.70;;;4.40;88.30;;;;;;5004297;28;20022;-68
2021/03/27 10:20:17;;;;;;;6.13;2.13;;;4.30;89.40;;;;;;5000823;28;20483;-68
2021/03/27 10:22:56;;;;;;;10.07;2.50;;;4.30;90.50;;;;;;4998603;28;20049;-68
2021/03/27 10:25:32;;;;;;;8.32;2.00;;;4.40;91.10;;;;;;5001221;28;20399;-67
2021/03/27 10:28:07;;;;;;;8.90;2.05;;;4.30;90.90;;;;;;5002517;28;20371;-67
2021/03/27 10:30:41;;;;;;;10.30;2.88;;;4.40;90.80;;;;;;5004601;28;20036;-68
2021/03/27 10:33:15;;;;;;;9.07;2.70;;;4.50;90.60;;;;;;5008109;28;20498;-68
2021/03/27 10:35:52;;;;;;;6.20;2.33;;;4.50;90.50;;;;;;4996396;28;20058;-68
2021/03/27 10:38:50;;;;;;;3.50;1.40;;;4.50;89.30;;;;;;4996559;28;20034;-68
2021/03/27 10:41:36;;;;;;;9.23;1.77;;;4.60;87.80;;;;;;4997765;28;20033;-68
2021/03/27 10:44:36;;;;;;;6.43;1.58;;;4.80;87.30;;;;;;4998014;28;20532;-68
2021/03/27 10:47:23;;;;;;;4.20;1.00;;;5.00;86.10;;;;;;5001805;28;20123;-67
2021/03/27 10:49:52;;;;;;;7.10;1.98;;;5.10;85.60;;;;;;5006923;28;20025;-68
2021/03/27 10:52:21;;;;;;;5.50;1.95;;;5.50;87.40;;;;;;5003094;28;20032;-68
2021/03/27 10:55:08;;;;;;;11.10;2.13;;;5.50;86.50;;;;;;5001558;28;20035;-68
2021/03/27 10:57:44;;;;;;;7.00;2.60;;;5.60;87.00;;;;;;4999505;28;20037;-68
2021/03/27 11:00:51;;;;;;;12.23;2.33;;;5.70;87.90;;;;;;5001410;28;20442;-68
2021/03/27 11:03:29;;;;;;;8.70;2.20;;;5.70;87.00;;;;;;4996252;28;20562;-68
2021/03/27 11:06:18;;;;;;;7.82;2.38;;;5.70;87.70;;;;;;5004058;28;20612;-68
2021/03/27 11:09:14;;;;;;;8.65;2.17;;;5.90;88.10;;;;;;5002014;28;20113;-68
2021/03/27 11:12:08;;;;;;;7.60;2.15;;;5.80;86.50;;;;;;5001241;28;20065;-69
2021/03/27 11:14:51;;;;;;;5.30;1.95;;;5.80;86.40;;;;;;5007216;28;20026;-68
2021/03/27 11:17:20;;;;;;;4.97;2.15;;;6.00;87.70;;;;;;4996160;28;20026;-68
2021/03/27 11:20:10;;;;;;;7.68;2.17;;;6.00;86.50;;;;;;4992928;28;20040;-68
2021/03/27 11:23:07;;;;;;;11.98;2.45;;;6.10;86.40;;;;;;4985896;28;20033;-69
2021/03/27 11:26:27;;;;;;;8.68;2.70;;;6.30;88.10;;;;;;4995356;28;20018;-69
2021/03/27 11:29:11;;;;;;;12.27;2.28;;;6.40;86.70;;;;;;4959354;28;20042;-70
2021/03/27 11:31:49;;;;;;;13.35;3.00;;;6.50;84.70;;;;;;5008360;28;20034;-69
2021/03/27 11:34:26;;;;;;;8.40;2.47;;;6.50;84.10;;;;;;5002359;28;20453;-69
2021/03/27 11:37:16;;;;;;;6.68;1.95;;;6.80;84.40;;;;;;5003891;28;20038;-68
2021/03/27 11:40:11;;;;;;;9.00;2.22;;;6.70;82.30;;;;;;4998199;28;20061;-68
2021/03/27 11:42:42;;;;;;;10.73;2.20;;;6.70;82.90;;;;;;4998644;28;20128;-68
2021/03/27 11:45:14;;;;;;;20.63;3.42;;;6.60;82.40;;;;;;4998329;28;20108;-68
2021/03/27 11:47:55;;;;;;;4.25;1.10;;;6.60;82.30;;;;;;4985571;28;20037;-69
2021/03/27 11:50:34;;;;;;;2.63;1.00;;;4.90;84.30;;;;;;4993372;28;20022;-67
2021/03/27 11:53:28;;;;;;;5.45;1.58;;;3.40;87.90;;;;;;4998462;28;20848;-67
2021/03/27 11:56:07;;;;;;;5.20;1.00;;;3.30;89.90;;;;;;4999250;28;20045;-67
2021/03/27 12:01:39;;;;;;;7.38;1.70;;;3.30;89.30;;;;;;5000813;28;20064;-68
2021/03/27 12:04:42;;;;;;;8.20;1.88;;;3.90;88.60;;;;;;5003524;28;20033;-67
2021/03/27 12:07:19;;;;;;;5.72;1.48;;;4.60;87.90;;;;;;5005059;28;20604;-68
2021/03/27 12:10:21;;;;;;;8.00;2.08;;;5.40;87.10;;;;;;4998009;28;20048;-70
2021/03/27 12:13:17;;;;;;;12.13;2.60;;;6.00;83.60;;;;;;5001394;28;20026;-68
2021/03/27 12:15:52;;;;;;;17.42;3.00;;;6.50;84.00;;;;;;5007785;28;20108;-68
2021/03/27 12:18:46;;;;;;;11.45;3.40;;;6.50;84.30;;;;;;5009299;28;20510;-68
2021/03/27 12:21:38;;;;;;;10.27;2.20;;;6.20;83.20;;;;;;5002549;28;20078;-68
2021/03/27 12:24:28;;;;;;;6.97;2.00;;;6.20;84.60;;;;;;5004219;28;20517;-68
2021/03/27 12:27:02;;;;;;;8.47;2.60;;;6.10;84.10;;;;;;5004664;28;20217;-68
2021/03/27 12:29:36;;;;;;;10.80;2.45;;;6.00;85.30;;;;;;5008270;28;20806;-68
2021/03/27 12:32:25;;;;;;;8.88;2.88;;;5.90;84.70;;;;;;5004779;28;20038;-67
2021/03/27 12:34:58;;;;;;;10.45;2.30;;;5.70;83.80;;;;;;5008293;28;20042;-68
2021/03/27 12:37:41;;;;;;;6.57;2.03;;;5.70;84.20;;;;;;5004557;28;20604;-68
2021/03/27 12:40:36;;;;;;;14.07;2.75;;;5.60;83.70;;;;;;5005286;28;20080;-68
2021/03/27 12:43:05;;;;;;;5.28;2.15;;;5.80;84.90;;;;;;5005526;28;20068;-69
2021/03/27 12:45:40;;;;;;;8.45;2.38;;;6.00;85.30;;;;;;5006728;28;20030;-68
2021/03/27 12:49:03;;;;;;;12.88;2.90;;;6.10;83.40;;;;;;5009385;28;20564;-68
2021/03/27 12:52:04;;;;;;;8.95;2.55;;;6.30;82.90;;;;;;5011414;28;20067;-68
2021/03/27 12:54:35;;;;;;;8.93;2.17;;;6.80;79.60;;;;;;5001661;28;20038;-69
2021/03/27 12:57:41;;;;;;;6.93;1.90;;;7.90;75.90;;;;;;4999653;28;20304;-69
2021/03/27 13:00:07;;;;;;;9.63;2.38;;;8.80;74.10;;;;;;5004233;28;20079;-69
2021/03/27 13:02:42;;;;;;;13.52;2.60;;;8.80;73.20;;;;;;4984663;28;20038;-69
2021/03/27 13:05:35;;;;;;;8.02;2.08;;;8.50;73.90;;;;;;5002062;28;20022;-69
2021/03/27 13:08:18;;;;;;;9.70;1.90;;;8.60;71.30;;;;;;4998172;28;20026;-69
2021/03/27 13:10:48;;;;;;;6.63;1.73;;;7.80;70.10;;;;;;4996126;28;20030;-70
2021/03/27 13:13:33;;;;;;;1.85;0.70;;;7.20;70.90;;;;;;5004411;28;20022;-69
2021/03/27 13:16:21;;;;;;;4.05;1.02;;;5.70;72.70;;;;;;5001370;28;20030;-67
2021/03/27 13:19:10;;;;;;;3.63;0.90;;;5.30;76.80;;;;;;5001598;28;20034;-68
2021/03/27 13:21:57;;;;;;;5.15;0.93;;;5.10;77.40;;;;;;5004396;28;20037;-68
2021/03/27 13:24:53;;;;;;;3.10;0.70;;;5.00;77.50;;;;;;4997427;28;20048;-69
2021/03/27 13:27:30;;;;;;;4.50;1.15;;;5.10;79.20;;;;;;4978731;28;20034;-68
2021/03/27 13:30:16;;;;;;;3.63;1.13;;;5.40;80.90;;;;;;4999760;28;20116;-69
2021/03/27 13:32:51;;;;;;;6.10;1.42;;;5.70;77.50;;;;;;5011369;28;20026;-69
2021/03/27 13:35:21;;;;;;;6.78;1.60;;;6.30;77.50;;;;;;4998183;28;20026;-70
2021/03/27 13:37:51;;;;;;;4.80;1.75;;;7.50;75.70;;;;;;5007170;28;20049;-69
2021/03/27 13:40:26;;;;;;;5.68;1.38;;;8.30;74.90;;;;;;5000013;28;20113;-69
2021/03/27 13:43:14;;;;;;;10.15;1.90;;;8.30;71.20;;;;;;5006793;28;20045;-70
2021/03/27 13:46:03;;;;;;;9.63;2.03;;;9.00;73.10;;;;;;5002589;28;20037;-69
2021/03/27 13:48:28;;;;;;;5.57;1.35;;;9.60;69.40;;;;;;5007063;28;20529;-70
2021/03/27 13:51:25;;;;;;;4.50;1.35;;;9.40;67.20;;;;;;5003880;28;20030;-68
2021/03/27 13:54:18;;;;;;;5.97;1.48;;;9.50;65.20;;;;;;5001202;28;20030;-68
2021/03/27 13:57:10;;;;;;;5.45;1.67;;;9.50;64.50;;;;;;5001834;28;20104;-68
2021/03/27 13:59:49;;;;;;;7.20;1.58;;;9.40;64.50;;;;;;4998330;28;20125;-68
2021/03/27 14:02:44;;;;;;;12.10;1.98;;;10.10;62.60;;;;;;5003984;28;20710;-68
2021/03/27 14:05:43;;;;;;;4.75;1.60;;;9.60;64.00;;;;;;5003257;28;20032;-69
2021/03/27 14:08:32;;;;;;;11.18;2.03;;;8.60;64.60;;;;;;5002982;28;20137;-69
2021/03/27 14:11:23;;;;;;;8.02;2.25;;;8.30;66.30;;;;;;5006305;28;20076;-69
2021/03/27 14:14:02;;;;;;;9.47;2.20;;;7.80;66.60;;;;;;5006538;28;20091;-68
2021/03/27 14:17:00;;;;;;;8.65;1.48;;;7.60;68.60;;;;;;5002264;28;20283;-69
2021/03/27 14:20:11;;;;;;;5.55;1.27;;;5.60;76.70;;;;;;5007454;28;20026;-68
2021/03/27 14:23:14;;;;;;;5.90;1.65;;;4.70;81.50;;;;;;5001314;28;20040;-68
2021/03/27 14:26:11;;;;;;;11.48;1.75;;;4.80;81.40;;;;;;5004321;28;20026;-68